sensor_id;sensor_type;location;lat;lon;timestamp;pressure;altitude;pressure_sealevel;temperature;humidity
69528;BME280;57136;51.986;4.468;2022-07-06T00:02:13;102757.06;;;13.89;94.75
69528;BME280;57136;51.986;4.468;2022-07-06T00:04:40;102757.13;;;13.92;94.42
69528;BME280;57136;51.986;4.468;2022-07-06T00:07:06;102755.38;;;13.91;94.90
69528;BME280;57136;51.986;4.468;2022-07-06T00:09:32;102753.53;;;13.89;96.12
69528;BME280;57136;51.986;4.468;2022-07-06T00:11:57;102754.38;;;13.86;96.01
69528;BME280;57136;51.986;4.468;2022-07-06T00:14:22;102753.47;;;13.84;96.00
69528;BME280;57136;51.986;4.468;2022-07-06T00:16:48;102757.78;;;13.84;95.22
69528;BME280;57136;51.986;4.468;2022-07-06T00:19:13;102750.94;;;13.89;95.10
69528;BME280;57136;51.986;4.468;2022-07-06T00:21:38;102750.91;;;13.87;95.59
69528;BME280;57136;51.986;4.468;2022-07-06T00:24:04;102754.31;;;13.85;96.57
69528;BME280;57136;51.986;4.468;2022-07-06T00:26:29;102749.91;;;13.82;96.78
69528;BME280;57136;51.986;4.468;2022-07-06T00:28:55;102747.31;;;13.84;96.58
69528;BME280;57136;51.986;4.468;2022-07-06T00:31:20;102738.59;;;13.85;96.63
69528;BME280;57136;51.986;4.468;2022-07-06T00:33:45;102734.13;;;13.79;97.92
69528;BME280;57136;51.986;4.468;2022-07-06T00:36:11;102730.78;;;13.86;97.09
69528;BME280;57136;51.986;4.468;2022-07-06T00:38:36;102733.25;;;13.78;98.01
69528;BME280;57136;51.986;4.468;2022-07-06T00:41:01;102736.69;;;13.76;98.54
69528;BME280;57136;51.986;4.468;2022-07-06T00:43:27;102735.66;;;13.69;99.12
69528;BME280;57136;51.986;4.468;2022-07-06T00:45:52;102749.63;;;13.68;97.87
69528;BME280;57136;51.986;4.468;2022-07-06T00:48:17;102741.97;;;13.77;96.66
69528;BME280;57136;51.986;4.468;2022-07-06T00:50:43;102743.91;;;13.88;96.16
69528;BME280;57136;51.986;4.468;2022-07-06T00:53:08;102744.84;;;13.90;95.96
69528;BME280;57136;51.986;4.468;2022-07-06T00:55:38;102753.69;;;13.95;95.49
69528;BME280;57136;51.986;4.468;2022-07-06T00:58:07;102743.22;;;13.97;95.02
69528;BME280;57136;51.986;4.468;2022-07-06T01:00:34;102745.16;;;14.05;94.62
69528;BME280;57136;51.986;4.468;2022-07-06T01:03:00;102744.13;;;13.97;95.21
69528;BME280;57136;51.986;4.468;2022-07-06T01:05:25;102740.50;;;13.90;94.84
69528;BME280;57136;51.986;4.468;2022-07-06T01:07:52;102747.25;;;13.81;95.41
69528;BME280;57136;51.986;4.468;2022-07-06T01:10:19;102741.81;;;13.71;95.61
69528;BME280;57136;51.986;4.468;2022-07-06T01:12:46;102742.53;;;13.64;95.98
69528;BME280;57136;51.986;4.468;2022-07-06T01:15:16;102732.75;;;13.57;96.13
69528;BME280;57136;51.986;4.468;2022-07-06T01:17:42;102742.28;;;13.53;96.17
69528;BME280;57136;51.986;4.468;2022-07-06T01:20:18;102739.50;;;13.45;96.94
69528;BME280;57136;51.986;4.468;2022-07-06T01:22:46;102740.44;;;13.49;96.33
69528;BME280;57136;51.986;4.468;2022-07-06T01:25:12;102745.28;;;13.70;94.76
69528;BME280;57136;51.986;4.468;2022-07-06T01:27:41;102733.97;;;13.73;95.19
69528;BME280;57136;51.986;4.468;2022-07-06T01:30:10;102740.06;;;13.70;95.58
69528;BME280;57136;51.986;4.468;2022-07-06T01:32:36;102746.00;;;13.63;96.43
69528;BME280;57136;51.986;4.468;2022-07-06T01:35:02;102743.22;;;13.57;96.61
69528;BME280;57136;51.986;4.468;2022-07-06T01:37:28;102737.06;;;13.53;96.85
69528;BME280;57136;51.986;4.468;2022-07-06T01:39:53;102733.50;;;13.51;97.15
69528;BME280;57136;51.986;4.468;2022-07-06T01:42:18;102734.28;;;13.45;98.23
69528;BME280;57136;51.986;4.468;2022-07-06T01:44:44;102734.97;;;13.40;98.77
69528;BME280;57136;51.986;4.468;2022-07-06T01:47:10;102728.75;;;13.34;98.93
69528;BME280;57136;51.986;4.468;2022-07-06T01:49:36;102731.25;;;13.30;99.13
69528;BME280;57136;51.986;4.468;2022-07-06T01:52:01;102736.56;;;13.33;98.42
69528;BME280;57136;51.986;4.468;2022-07-06T01:54:26;102733.91;;;13.31;99.63
69528;BME280;57136;51.986;4.468;2022-07-06T01:56:52;102731.41;;;13.36;98.85
69528;BME280;57136;51.986;4.468;2022-07-06T01:59:17;102734.84;;;13.33;99.38
69528;BME280;57136;51.986;4.468;2022-07-06T02:01:43;102730.31;;;13.28;99.77
69528;BME280;57136;51.986;4.468;2022-07-06T02:04:08;102726.59;;;13.18;100.00
69528;BME280;57136;51.986;4.468;2022-07-06T02:06:33;102733.44;;;13.11;100.00
69528;BME280;57136;51.986;4.468;2022-07-06T02:08:58;102728.09;;;13.07;100.00
69528;BME280;57136;51.986;4.468;2022-07-06T02:11:23;102728.81;;;13.01;100.00
69528;BME280;57136;51.986;4.468;2022-07-06T02:13:49;102737.56;;;13.01;100.00
69528;BME280;57136;51.986;4.468;2022-07-06T02:16:14;102725.25;;;12.99;100.00
69528;BME280;57136;51.986;4.468;2022-07-06T02:18:39;102729.63;;;12.98;100.00
69528;BME280;57136;51.986;4.468;2022-07-06T02:21:05;102731.31;;;12.96;100.00
69528;BME280;57136;51.986;4.468;2022-07-06T02:23:30;102734.75;;;12.94;100.00
69528;BME280;57136;51.986;4.468;2022-07-06T02:25:56;102740.75;;;12.89;100.00
69528;BME280;57136;51.986;4.468;2022-07-06T02:28:21;102734.59;;;12.87;100.00
69528;BME280;57136;51.986;4.468;2022-07-06T02:30:46;102739.75;;;12.84;100.00
69528;BME280;57136;51.986;4.468;2022-07-06T02:33:12;102737.94;;;12.82;100.00
69528;BME280;57136;51.986;4.468;2022-07-06T02:35:37;102728.44;;;12.85;100.00
69528;BME280;57136;51.986;4.468;2022-07-06T02:38:07;102731.00;;;12.84;100.00
69528;BME280;57136;51.986;4.468;2022-07-06T02:40:32;102731.81;;;12.81;100.00
69528;BME280;57136;51.986;4.468;2022-07-06T02:42:57;102732.66;;;12.80;100.00
69528;BME280;57136;51.986;4.468;2022-07-06T02:45:23;102737.88;;;12.79;100.00
69528;BME280;57136;51.986;4.468;2022-07-06T02:47:48;102736.88;;;12.75;100.00
69528;BME280;57136;51.986;4.468;2022-07-06T02:50:14;102744.66;;;12.72;100.00
69528;BME280;57136;51.986;4.468;2022-07-06T02:52:39;102739.31;;;12.67;100.00
69528;BME280;57136;51.986;4.468;2022-07-06T02:55:05;102736.66;;;12.66;100.00
69528;BME280;57136;51.986;4.468;2022-07-06T02:57:30;102740.97;;;12.64;100.00
69528;BME280;57136;51.986;4.468;2022-07-06T02:59:55;102746.19;;;12.64;100.00
69528;BME280;57136;51.986;4.468;2022-07-06T03:02:21;102740.97;;;12.64;100.00
69528;BME280;57136;51.986;4.468;2022-07-06T03:04:46;102746.97;;;12.61;100.00
69528;BME280;57136;51.986;4.468;2022-07-06T03:07:11;102751.38;;;12.62;100.00
69528;BME280;57136;51.986;4.468;2022-07-06T03:09:37;102740.03;;;12.62;100.00
69528;BME280;57136;51.986;4.468;2022-07-06T03:12:02;102747.88;;;12.62;100.00
69528;BME280;57136;51.986;4.468;2022-07-06T03:14:27;102749.50;;;12.58;100.00
69528;BME280;57136;51.986;4.468;2022-07-06T03:16:53;102750.34;;;12.57;100.00
69528;BME280;57136;51.986;4.468;2022-07-06T03:19:19;102742.47;;;12.55;100.00
69528;BME280;57136;51.986;4.468;2022-07-06T03:21:44;102745.19;;;12.58;100.00
69528;BME280;57136;51.986;4.468;2022-07-06T03:24:10;102736.53;;;12.61;100.00
69528;BME280;57136;51.986;4.468;2022-07-06T03:26:35;102740.06;;;12.63;100.00
69528;BME280;57136;51.986;4.468;2022-07-06T03:29:01;102738.34;;;12.64;100.00
69528;BME280;57136;51.986;4.468;2022-07-06T03:31:26;102742.75;;;12.66;100.00
69528;BME280;57136;51.986;4.468;2022-07-06T03:33:52;102747.19;;;12.69;100.00
69528;BME280;57136;51.986;4.468;2022-07-06T03:36:17;102747.25;;;12.70;100.00
69528;BME280;57136;51.986;4.468;2022-07-06T03:38:43;102752.50;;;12.72;100.00
69528;BME280;57136;51.986;4.468;2022-07-06T03:41:08;102751.66;;;12.73;100.00
69528;BME280;57136;51.986;4.468;2022-07-06T03:43:33;102749.09;;;12.74;100.00
69528;BME280;57136;51.986;4.468;2022-07-06T03:45:59;102735.16;;;12.76;100.00
69528;BME280;57136;51.986;4.468;2022-07-06T03:48:24;102741.31;;;12.78;100.00
69528;BME280;57136;51.986;4.468;2022-07-06T03:50:49;102738.97;;;12.88;100.00
69528;BME280;57136;51.986;4.468;2022-07-06T03:53:15;102737.75;;;13.09;100.00
69528;BME280;57136;51.986;4.468;2022-07-06T03:55:41;102731.25;;;13.30;100.00
69528;BME280;57136;51.986;4.468;2022-07-06T03:58:06;102728.19;;;13.48;100.00
69528;BME280;57136;51.986;4.468;2022-07-06T04:00:31;102727.66;;;13.63;100.00
69528;BME280;57136;51.986;4.468;2022-07-06T04:02:57;102729.41;;;13.62;100.00
69528;BME280;57136;51.986;4.468;2022-07-06T04:05:22;102729.38;;;13.61;100.00
69528;BME280;57136;51.986;4.468;2022-07-06T04:07:48;102726.66;;;13.58;100.00
69528;BME280;57136;51.986;4.468;2022-07-06T04:10:15;102726.66;;;13.58;100.00
69528;BME280;57136;51.986;4.468;2022-07-06T04:12:44;102731.06;;;13.59;100.00
69528;BME280;57136;51.986;4.468;2022-07-06T04:15:11;102728.59;;;13.65;100.00
69528;BME280;57136;51.986;4.468;2022-07-06T04:17:37;102727.88;;;13.72;100.00
69528;BME280;57136;51.986;4.468;2022-07-06T04:20:19;102726.69;;;13.99;100.00
69528;BME280;57136;51.986;4.468;2022-07-06T04:22:45;102736.63;;;14.16;99.51
69528;BME280;57136;51.986;4.468;2022-07-06T04:25:10;102730.00;;;14.36;96.84
69528;BME280;57136;51.986;4.468;2022-07-06T04:27:36;102718.25;;;14.60;93.25
69528;BME280;57136;51.986;4.468;2022-07-06T04:30:03;102720.28;;;14.75;90.15
69528;BME280;57136;51.986;4.468;2022-07-06T04:32:29;102725.78;;;14.92;88.81
69528;BME280;57136;51.986;4.468;2022-07-06T04:34:55;102732.09;;;15.02;87.88
69528;BME280;57136;51.986;4.468;2022-07-06T04:37:20;102733.88;;;15.05;87.51
69528;BME280;57136;51.986;4.468;2022-07-06T04:39:45;102732.97;;;15.03;87.18
69528;BME280;57136;51.986;4.468;2022-07-06T04:42:10;102732.22;;;15.10;86.45
69528;BME280;57136;51.986;4.468;2022-07-06T04:44:36;102736.63;;;15.12;86.11
69528;BME280;57136;51.986;4.468;2022-07-06T04:47:01;102730.56;;;15.15;85.98
69528;BME280;57136;51.986;4.468;2022-07-06T04:49:26;102737.53;;;15.13;86.17
69528;BME280;57136;51.986;4.468;2022-07-06T04:51:52;102740.22;;;15.18;86.04
69528;BME280;57136;51.986;4.468;2022-07-06T04:54:17;102738.44;;;15.15;86.28
69528;BME280;57136;51.986;4.468;2022-07-06T04:56:43;102744.59;;;15.17;85.91
69528;BME280;57136;51.986;4.468;2022-07-06T04:59:08;102742.81;;;15.16;86.27
69528;BME280;57136;51.986;4.468;2022-07-06T05:01:33;102738.38;;;15.13;86.20
69528;BME280;57136;51.986;4.468;2022-07-06T05:03:59;102742.81;;;15.16;86.95
69528;BME280;57136;51.986;4.468;2022-07-06T05:06:24;102740.31;;;15.24;86.89
69528;BME280;57136;51.986;4.468;2022-07-06T05:08:49;102746.72;;;15.43;86.62
69528;BME280;57136;51.986;4.468;2022-07-06T05:11:15;102744.44;;;15.68;85.63
69528;BME280;57136;51.986;4.468;2022-07-06T05:13:41;102745.72;;;15.95;84.20
69528;BME280;57136;51.986;4.468;2022-07-06T05:16:06;102751.19;;;16.13;83.41
69528;BME280;57136;51.986;4.468;2022-07-06T05:18:32;102752.19;;;16.25;82.16
69528;BME280;57136;51.986;4.468;2022-07-06T05:20:57;102754.00;;;16.32;81.67
69528;BME280;57136;51.986;4.468;2022-07-06T05:23:22;102759.28;;;16.30;81.30
69528;BME280;57136;51.986;4.468;2022-07-06T05:25:48;102758.53;;;16.42;81.19
69528;BME280;57136;51.986;4.468;2022-07-06T05:28:13;102762.22;;;16.61;80.17
69528;BME280;57136;51.986;4.468;2022-07-06T05:30:38;102763.41;;;16.91;79.35
69528;BME280;57136;51.986;4.468;2022-07-06T05:33:03;102761.00;;;17.16;77.14
69528;BME280;57136;51.986;4.468;2022-07-06T05:35:29;102759.44;;;17.42;75.29
69528;BME280;57136;51.986;4.468;2022-07-06T05:37:54;102763.03;;;17.59;73.73
69528;BME280;57136;51.986;4.468;2022-07-06T05:40:20;102757.84;;;17.73;73.33
69528;BME280;57136;51.986;4.468;2022-07-06T05:42:45;102752.63;;;17.87;73.32
69528;BME280;57136;51.986;4.468;2022-07-06T05:45:10;102759.78;;;18.05;72.30
69528;BME280;57136;51.986;4.468;2022-07-06T05:47:36;102764.22;;;18.20;71.64
69528;BME280;57136;51.986;4.468;2022-07-06T05:50:20;102759.91;;;18.44;70.23
69528;BME280;57136;51.986;4.468;2022-07-06T05:52:59;102757.28;;;18.61;69.44
69528;BME280;57136;51.986;4.468;2022-07-06T05:55:25;102752.00;;;18.72;68.99
69528;BME280;57136;51.986;4.468;2022-07-06T05:57:51;102756.41;;;18.82;67.96
69528;BME280;57136;51.986;4.468;2022-07-06T06:00:19;102752.03;;;18.89;68.99
69528;BME280;57136;51.986;4.468;2022-07-06T06:02:45;102761.72;;;18.99;65.45
69528;BME280;57136;51.986;4.468;2022-07-06T06:05:11;102759.97;;;19.03;63.08
69528;BME280;57136;51.986;4.468;2022-07-06T06:07:38;102757.31;;;19.19;63.69
69528;BME280;57136;51.986;4.468;2022-07-06T06:10:06;102761.72;;;19.23;66.39
69528;BME280;57136;51.986;4.468;2022-07-06T06:12:32;102759.94;;;19.33;62.42
69528;BME280;57136;51.986;4.468;2022-07-06T06:14:58;102755.53;;;19.47;60.71
69528;BME280;57136;51.986;4.468;2022-07-06T06:17:23;102757.25;;;19.53;60.31
69528;BME280;57136;51.986;4.468;2022-07-06T06:19:48;102752.84;;;19.64;59.10
69528;BME280;57136;51.986;4.468;2022-07-06T06:22:14;102754.56;;;19.68;58.17
69528;BME280;57136;51.986;4.468;2022-07-06T06:24:39;102751.88;;;19.87;58.52
69528;BME280;57136;51.986;4.468;2022-07-06T06:27:05;102750.09;;;19.95;59.32
69528;BME280;57136;51.986;4.468;2022-07-06T06:29:30;102758.00;;;20.04;55.74
69528;BME280;57136;51.986;4.468;2022-07-06T06:31:56;102757.13;;;20.07;53.55
69528;BME280;57136;51.986;4.468;2022-07-06T06:34:21;102764.19;;;20.02;54.19
69528;BME280;57136;51.986;4.468;2022-07-06T06:36:46;102765.97;;;19.94;55.58
69528;BME280;57136;51.986;4.468;2022-07-06T06:39:12;102755.38;;;19.87;54.89
69528;BME280;57136;51.986;4.468;2022-07-06T06:41:37;102758.03;;;20.00;56.39
69528;BME280;57136;51.986;4.468;2022-07-06T06:44:03;102765.81;;;20.26;55.77
69528;BME280;57136;51.986;4.468;2022-07-06T06:46:28;102761.41;;;20.30;52.41
69528;BME280;57136;51.986;4.468;2022-07-06T06:48:53;102763.16;;;20.31;52.73
69528;BME280;57136;51.986;4.468;2022-07-06T06:51:19;102765.75;;;20.37;54.01
69528;BME280;57136;51.986;4.468;2022-07-06T06:53:46;102762.97;;;20.57;55.89
69528;BME280;57136;51.986;4.468;2022-07-06T06:56:11;102774.38;;;20.72;50.59
69528;BME280;57136;51.986;4.468;2022-07-06T06:58:37;102768.09;;;20.85;52.80
69528;BME280;57136;51.986;4.468;2022-07-06T07:01:02;102762.78;;;20.90;48.49
69528;BME280;57136;51.986;4.468;2022-07-06T07:03:27;102757.41;;;20.98;49.74
69528;BME280;57136;51.986;4.468;2022-07-06T07:05:52;102760.94;;;21.00;49.57
69528;BME280;57136;51.986;4.468;2022-07-06T07:08:18;102762.69;;;20.99;49.28
69528;BME280;57136;51.986;4.468;2022-07-06T07:10:43;102751.28;;;20.92;50.90
69528;BME280;57136;51.986;4.468;2022-07-06T07:13:08;102752.13;;;20.96;49.03
69528;BME280;57136;51.986;4.468;2022-07-06T07:15:34;102761.69;;;21.14;48.57
69528;BME280;57136;51.986;4.468;2022-07-06T07:18:00;102767.75;;;21.29;45.07
69528;BME280;57136;51.986;4.468;2022-07-06T07:20:25;102765.34;;;20.99;49.00
69528;BME280;57136;51.986;4.468;2022-07-06T07:22:51;102762.25;;;21.47;45.80
69528;BME280;57136;51.986;4.468;2022-07-06T07:25:16;102759.69;;;21.39;48.67
69528;BME280;57136;51.986;4.468;2022-07-06T07:27:41;102754.03;;;21.74;47.08
69528;BME280;57136;51.986;4.468;2022-07-06T07:30:07;102764.38;;;21.94;46.50
69528;BME280;57136;51.986;4.468;2022-07-06T07:32:33;102750.63;;;21.56;44.51
69528;BME280;57136;51.986;4.468;2022-07-06T07:34:58;102751.81;;;22.07;43.17
69528;BME280;57136;51.986;4.468;2022-07-06T07:37:23;102760.38;;;22.29;43.94
69528;BME280;57136;51.986;4.468;2022-07-06T07:39:48;102759.34;;;22.39;41.38
69528;BME280;57136;51.986;4.468;2022-07-06T07:42:14;102756.00;;;22.26;42.19
69528;BME280;57136;51.986;4.468;2022-07-06T07:44:39;102752.44;;;21.55;41.26
69528;BME280;57136;51.986;4.468;2022-07-06T07:47:06;102749.63;;;21.73;45.19
69528;BME280;57136;51.986;4.468;2022-07-06T07:49:31;102754.13;;;22.33;40.43
69528;BME280;57136;51.986;4.468;2022-07-06T07:51:57;102750.38;;;22.48;41.04
69528;BME280;57136;51.986;4.468;2022-07-06T07:54:23;102754.63;;;22.58;40.77
69528;BME280;57136;51.986;4.468;2022-07-06T07:56:49;102749.34;;;21.93;39.72
69528;BME280;57136;51.986;4.468;2022-07-06T07:59:14;102745.06;;;21.81;41.32
69528;BME280;57136;51.986;4.468;2022-07-06T08:01:39;102743.03;;;22.03;41.41
69528;BME280;57136;51.986;4.468;2022-07-06T08:04:05;102735.72;;;22.80;37.39
69528;BME280;57136;51.986;4.468;2022-07-06T08:06:32;102730.09;;;22.97;35.28
69528;BME280;57136;51.986;4.468;2022-07-06T08:08:57;102723.53;;;23.17;33.85
69528;BME280;57136;51.986;4.468;2022-07-06T08:11:22;102721.81;;;23.61;36.65
69528;BME280;57136;51.986;4.468;2022-07-06T08:13:48;102720.25;;;23.93;35.55
69528;BME280;57136;51.986;4.468;2022-07-06T08:16:13;102723.94;;;24.27;34.80
69528;BME280;57136;51.986;4.468;2022-07-06T08:18:39;102733.00;;;24.58;33.71
69528;BME280;57136;51.986;4.468;2022-07-06T08:21:04;102730.91;;;24.71;33.07
69528;BME280;57136;51.986;4.468;2022-07-06T08:23:31;102733.25;;;24.85;32.76
69528;BME280;57136;51.986;4.468;2022-07-06T08:25:59;102730.31;;;24.95;31.82
69528;BME280;57136;51.986;4.468;2022-07-06T08:28:25;102722.03;;;24.70;34.01
69528;BME280;57136;51.986;4.468;2022-07-06T08:30:50;102722.84;;;24.37;32.97
69528;BME280;57136;51.986;4.468;2022-07-06T08:33:15;102721.72;;;24.10;34.15
69528;BME280;57136;51.986;4.468;2022-07-06T08:35:41;102728.81;;;23.67;35.29
69528;BME280;57136;51.986;4.468;2022-07-06T08:38:06;102723.44;;;23.69;34.81
69528;BME280;57136;51.986;4.468;2022-07-06T08:40:35;102724.63;;;23.55;34.73
69528;BME280;57136;51.986;4.468;2022-07-06T08:43:03;102720.69;;;23.28;35.21
69528;BME280;57136;51.986;4.468;2022-07-06T08:45:29;102728.00;;;23.15;35.14
69528;BME280;57136;51.986;4.468;2022-07-06T08:47:57;102726.06;;;22.73;36.04
69528;BME280;57136;51.986;4.468;2022-07-06T08:50:24;102727.16;;;22.61;36.07
69528;BME280;57136;51.986;4.468;2022-07-06T08:52:50;102730.84;;;22.52;36.58
69528;BME280;57136;51.986;4.468;2022-07-06T08:55:17;102726.53;;;22.45;39.79
69528;BME280;57136;51.986;4.468;2022-07-06T08:57:45;102723.22;;;22.84;37.06
69528;BME280;57136;51.986;4.468;2022-07-06T09:00:11;102723.88;;;22.98;38.29
69528;BME280;57136;51.986;4.468;2022-07-06T09:02:38;102715.50;;;23.20;36.71
69528;BME280;57136;51.986;4.468;2022-07-06T09:05:05;102714.66;;;23.18;35.31
69528;BME280;57136;51.986;4.468;2022-07-06T09:07:32;102727.84;;;23.26;35.84
69528;BME280;57136;51.986;4.468;2022-07-06T09:09:59;102726.50;;;23.50;34.60
69528;BME280;57136;51.986;4.468;2022-07-06T09:12:26;102722.13;;;23.46;35.20
69528;BME280;57136;51.986;4.468;2022-07-06T09:14:54;102714.72;;;23.62;36.37
69528;BME280;57136;51.986;4.468;2022-07-06T09:17:20;102721.25;;;23.88;34.61
69528;BME280;57136;51.986;4.468;2022-07-06T09:19:45;102714.78;;;24.01;37.15
69528;BME280;57136;51.986;4.468;2022-07-06T09:22:24;102723.94;;;24.29;34.16
69528;BME280;57136;51.986;4.468;2022-07-06T09:24:49;102727.75;;;23.74;38.19
69528;BME280;57136;51.986;4.468;2022-07-06T09:27:16;102723.53;;;23.17;36.35
69528;BME280;57136;51.986;4.468;2022-07-06T09:29:45;102727.97;;;23.63;39.43
69528;BME280;57136;51.986;4.468;2022-07-06T09:32:10;102741.94;;;23.75;38.56
69528;BME280;57136;51.986;4.468;2022-07-06T09:34:43;102735.19;;;24.40;38.46
69528;BME280;57136;51.986;4.468;2022-07-06T09:37:09;102735.56;;;24.62;37.11
69528;BME280;57136;51.986;4.468;2022-07-06T09:39:35;102744.38;;;24.66;38.76
69528;BME280;57136;51.986;4.468;2022-07-06T09:42:02;102746.66;;;24.06;35.91
69528;BME280;57136;51.986;4.468;2022-07-06T09:44:30;102748.38;;;24.46;34.57
69528;BME280;57136;51.986;4.468;2022-07-06T09:47:01;102751.47;;;24.67;33.24
69528;BME280;57136;51.986;4.468;2022-07-06T09:49:28;102754.34;;;24.56;34.75
69528;BME280;57136;51.986;4.468;2022-07-06T09:51:58;102754.47;;;24.53;33.16
69528;BME280;57136;51.986;4.468;2022-07-06T09:54:24;102751.81;;;24.51;36.62
69528;BME280;57136;51.986;4.468;2022-07-06T09:56:50;102745.34;;;24.98;37.44
69528;BME280;57136;51.986;4.468;2022-07-06T09:59:18;102745.97;;;25.74;32.19
69528;BME280;57136;51.986;4.468;2022-07-06T10:01:44;102749.03;;;25.92;31.56
69528;BME280;57136;51.986;4.468;2022-07-06T10:04:13;102740.25;;;25.86;32.88
69528;BME280;57136;51.986;4.468;2022-07-06T10:06:40;102734.69;;;25.94;32.90
69528;BME280;57136;51.986;4.468;2022-07-06T10:09:08;102743.81;;;26.17;32.00
69528;BME280;57136;51.986;4.468;2022-07-06T10:11:42;102738.72;;;26.91;30.37
69528;BME280;57136;51.986;4.468;2022-07-06T10:14:09;102732.66;;;27.37;31.43
69528;BME280;57136;51.986;4.468;2022-07-06T10:16:38;102741.69;;;27.09;31.04
69528;BME280;57136;51.986;4.468;2022-07-06T10:19:08;102735.03;;;27.21;30.14
69528;BME280;57136;51.986;4.468;2022-07-06T10:21:37;102749.88;;;27.79;29.43
69528;BME280;57136;51.986;4.468;2022-07-06T10:24:04;102739.66;;;28.13;30.04
69528;BME280;57136;51.986;4.468;2022-07-06T10:26:30;102731.31;;;28.43;27.95
69528;BME280;57136;51.986;4.468;2022-07-06T10:28:58;102723.25;;;27.98;34.73
69528;BME280;57136;51.986;4.468;2022-07-06T10:31:25;102720.84;;;28.36;30.42
69528;BME280;57136;51.986;4.468;2022-07-06T10:33:52;102721.06;;;28.75;28.94
69528;BME280;57136;51.986;4.468;2022-07-06T10:36:17;102719.19;;;28.97;27.57
69528;BME280;57136;51.986;4.468;2022-07-06T10:38:49;102713.25;;;28.68;29.19
69528;BME280;57136;51.986;4.468;2022-07-06T10:41:15;102708.00;;;28.88;28.13
69528;BME280;57136;51.986;4.468;2022-07-06T10:43:43;102718.03;;;28.82;29.46
69528;BME280;57136;51.986;4.468;2022-07-06T10:46:10;102709.72;;;29.09;27.73
69528;BME280;57136;51.986;4.468;2022-07-06T10:48:46;102711.63;;;29.26;27.77
69528;BME280;57136;51.986;4.468;2022-07-06T10:51:13;102717.84;;;29.08;26.30
69528;BME280;57136;51.986;4.468;2022-07-06T10:53:55;102708.59;;;28.94;27.60
69528;BME280;57136;51.986;4.468;2022-07-06T10:56:31;102712.88;;;28.98;27.50
69528;BME280;57136;51.986;4.468;2022-07-06T10:59:02;102709.00;;;28.85;27.77
69528;BME280;57136;51.986;4.468;2022-07-06T11:01:28;102709.28;;;28.79;29.14
69528;BME280;57136;51.986;4.468;2022-07-06T11:06:24;102694.72;;;27.97;28.75
69528;BME280;57136;51.986;4.468;2022-07-06T11:08:53;102681.06;;;27.81;29.76
69528;BME280;57136;51.986;4.468;2022-07-06T11:11:22;102684.09;;;27.46;30.69
69528;BME280;57136;51.986;4.468;2022-07-06T11:16:16;102685.63;;;26.79;31.17
69528;BME280;57136;51.986;4.468;2022-07-06T11:18:46;102681.03;;;26.84;31.92
69528;BME280;57136;51.986;4.468;2022-07-06T11:23:46;102673.50;;;26.69;33.37
69528;BME280;57136;51.986;4.468;2022-07-06T11:26:13;102674.25;;;26.47;32.48
69528;BME280;57136;51.986;4.468;2022-07-06T11:28:38;102673.31;;;26.48;33.18
69528;BME280;57136;51.986;4.468;2022-07-06T11:31:04;102665.00;;;26.30;33.34
69528;BME280;57136;51.986;4.468;2022-07-06T11:33:30;102668.38;;;26.36;31.98
69528;BME280;57136;51.986;4.468;2022-07-06T11:36:18;102662.56;;;26.23;34.87
69528;BME280;57136;51.986;4.468;2022-07-06T11:38:46;102660.22;;;26.12;34.84
69528;BME280;57136;51.986;4.468;2022-07-06T11:41:13;102662.66;;;25.91;35.30
69528;BME280;57136;51.986;4.468;2022-07-06T11:43:46;102647.59;;;26.19;35.85
69528;BME280;57136;51.986;4.468;2022-07-06T11:46:29;102651.94;;;25.93;34.63
69528;BME280;57136;51.986;4.468;2022-07-06T11:51:27;102654.38;;;26.00;33.59
69528;BME280;57136;51.986;4.468;2022-07-06T11:53:55;102670.84;;;26.15;34.54
69528;BME280;57136;51.986;4.468;2022-07-06T11:56:22;102663.16;;;25.76;33.08
69528;BME280;57136;51.986;4.468;2022-07-06T11:58:51;102661.59;;;25.68;33.66
69528;BME280;57136;51.986;4.468;2022-07-06T12:01:16;102656.91;;;25.47;33.72
69528;BME280;57136;51.986;4.468;2022-07-06T12:03:42;102663.47;;;25.33;33.56
69528;BME280;57136;51.986;4.468;2022-07-06T12:06:19;102666.75;;;25.45;34.15
69528;BME280;57136;51.986;4.468;2022-07-06T12:08:53;102669.06;;;25.24;33.53
69528;BME280;57136;51.986;4.468;2022-07-06T12:11:33;102671.69;;;25.25;34.54
69528;BME280;57136;51.986;4.468;2022-07-06T12:14:01;102670.94;;;25.20;33.75
69528;BME280;57136;51.986;4.468;2022-07-06T12:16:32;102661.28;;;24.83;35.33
69528;BME280;57136;51.986;4.468;2022-07-06T12:19:00;102659.22;;;24.60;35.17
69528;BME280;57136;51.986;4.468;2022-07-06T12:21:26;102664.56;;;24.60;35.67
69528;BME280;57136;51.986;4.468;2022-07-06T12:23:53;102662.34;;;24.77;35.53
69528;BME280;57136;51.986;4.468;2022-07-06T12:26:21;102663.16;;;24.45;35.95
69528;BME280;57136;51.986;4.468;2022-07-06T12:29:05;102654.44;;;24.38;35.71
69528;BME280;57136;51.986;4.468;2022-07-06T12:31:38;102655.44;;;24.32;36.23
69528;BME280;57136;51.986;4.468;2022-07-06T12:34:04;102651.88;;;24.33;36.54
69528;BME280;57136;51.986;4.468;2022-07-06T12:36:30;102645.41;;;24.44;35.87
69528;BME280;57136;51.986;4.468;2022-07-06T12:38:56;102641.13;;;24.38;37.39
69528;BME280;57136;51.986;4.468;2022-07-06T12:41:29;102643.44;;;24.14;37.09
69528;BME280;57136;51.986;4.468;2022-07-06T12:44:08;102636.84;;;24.31;36.64
69528;BME280;57136;51.986;4.468;2022-07-06T12:46:39;102637.63;;;24.34;36.13
69528;BME280;57136;51.986;4.468;2022-07-06T12:51:56;102627.03;;;24.33;36.50
69528;BME280;57136;51.986;4.468;2022-07-06T12:54:28;102636.66;;;24.38;36.92
69528;BME280;57136;51.986;4.468;2022-07-06T12:57:00;102633.63;;;24.52;36.62
69528;BME280;57136;51.986;4.468;2022-07-06T12:59:25;102635.34;;;24.90;36.10